Time;durP1;ratioP1;P1;durP2;ratioP2;P2;SDS_P1;SDS_P2;PMS_P1;PMS_P2;Temp;Humidity;BMP_temperature;BMP_pressure;BME280_temperature;BME280_humidity;BME280_pressure;Samples;Min_cycle;Max_cycle;Signal;HPM_P1;HPM_P2
2021/10/11 00:02:04;;;;;;;23.80;15.80;;;;;;;4.35;80.07;97248.92;1849008;76;20968;-82
2021/10/11 00:04:29;;;;;;;20.57;15.48;;;;;;;4.34;80.10;97245.53;1849762;76;21382;-81
2021/10/11 00:06:55;;;;;;;20.75;16.00;;;;;;;4.36;80.35;97247.52;1847011;77;21057;-81
2021/10/11 00:09:21;;;;;;;22.35;15.55;;;;;;;4.36;80.41;97248.80;1848579;77;21007;-81
2021/10/11 00:11:47;;;;;;;23.47;15.72;;;;;;;4.35;80.59;97249.73;1845638;77;21024;-81
2021/10/11 00:14:12;;;;;;;23.38;15.83;;;;;;;4.33;80.54;97254.66;1843465;78;21358;-81
2021/10/11 00:16:38;;;;;;;27.77;17.32;;;;;;;4.30;80.55;97250.58;1846113;77;21011;-81
2021/10/11 00:19:04;;;;;;;21.57;15.25;;;;;;;4.26;80.52;97249.67;1847502;77;21093;-81
2021/10/11 00:21:31;;;;;;;25.92;15.93;;;;;;;4.24;80.61;97241.26;1843414;77;21055;-81
2021/10/11 00:23:57;;;;;;;23.40;16.60;;;;;;;4.24;80.52;97237.40;1849211;77;21054;-81
2021/10/11 00:26:22;;;;;;;23.85;16.67;;;;;;;4.25;80.73;97241.13;1849454;77;21378;-81
2021/10/11 00:28:48;;;;;;;22.17;15.15;;;;;;;4.25;80.82;97237.75;1849660;76;21031;-81
2021/10/11 00:31:14;;;;;;;27.95;18.30;;;;;;;4.24;80.75;97240.78;1846573;77;21059;-81
2021/10/11 00:33:40;;;;;;;26.85;16.37;;;;;;;4.21;80.95;97237.96;1846435;77;21109;-81
2021/10/11 00:36:06;;;;;;;27.25;17.45;;;;;;;4.19;80.84;97232.59;1840976;76;21011;-82
2021/10/11 00:38:32;;;;;;;25.68;16.12;;;;;;;4.20;80.79;97229.90;1844978;76;21171;-81
2021/10/11 00:40:58;;;;;;;24.55;16.60;;;;;;;4.22;81.05;97231.06;1809252;78;21080;-82
2021/10/11 00:43:24;;;;;;;26.97;18.75;;;;;;;4.24;80.96;97223.25;1806872;78;21020;-81
2021/10/11 00:45:49;;;;;;;28.20;18.65;;;;;;;4.24;80.90;97221.96;1824536;78;22072;-81
2021/10/11 00:48:15;;;;;;;26.42;18.57;;;;;;;4.25;80.90;97221.02;1840838;77;21066;-81
2021/10/11 00:50:43;;;;;;;28.85;19.48;;;;;;;4.19;80.83;97218.45;1845432;77;21177;-81
2021/10/11 00:53:09;;;;;;;33.38;22.25;;;;;;;4.16;81.18;97221.27;1849722;76;21114;-81
2021/10/11 00:55:35;;;;;;;32.80;19.55;;;;;;;4.16;81.02;97214.37;1846942;77;21536;-81
2021/10/11 00:58:00;;;;;;;34.63;22.30;;;;;;;4.16;80.96;97205.84;1847771;77;21103;-81
2021/10/11 01:00:26;;;;;;;33.95;23.90;;;;;;;4.17;81.12;97205.71;1847373;77;21106;-81
2021/10/11 01:02:52;;;;;;;35.25;24.43;;;;;;;4.19;81.25;97210.73;1846783;77;21454;-81
2021/10/11 01:07:43;;;;;;;35.65;26.42;;;;;;;4.19;81.55;97205.59;1848876;77;20999;-82
2021/10/11 01:10:09;;;;;;;37.63;26.30;;;;;;;4.18;81.67;97197.52;1849081;77;21046;-82
2021/10/11 01:12:35;;;;;;;40.55;26.37;;;;;;;4.16;81.82;97191.22;1848963;77;20988;-81
2021/10/11 01:15:01;;;;;;;44.53;30.82;;;;;;;4.18;81.98;97190.63;1850275;76;21043;-81
2021/10/11 01:17:26;;;;;;;40.88;28.35;;;;;;;4.22;81.95;97187.33;1840625;76;21480;-81
2021/10/11 01:19:56;;;;;;;41.35;27.15;;;;;;;4.25;81.92;97183.72;1848031;76;20996;-81
2021/10/11 01:24:48;;;;;;;37.13;27.60;;;;;;;4.30;81.93;97189.30;1848106;77;21401;-81
2021/10/11 01:27:15;;;;;;;42.70;29.37;;;;;;;4.31;82.15;97194.80;1847409;77;21485;-82
2021/10/11 01:29:41;;;;;;;44.58;29.27;;;;;;;4.28;82.33;97183.47;1831590;77;21052;-81
2021/10/11 01:32:07;;;;;;;47.10;29.20;;;;;;;4.26;82.24;97190.50;1851444;76;21011;-81
2021/10/11 01:34:33;;;;;;;43.10;29.90;;;;;;;4.31;82.22;97189.66;1845440;77;21000;-81
2021/10/11 01:36:58;;;;;;;44.27;29.95;;;;;;;4.34;82.21;97185.54;1844782;77;21426;-82
2021/10/11 01:39:24;;;;;;;44.77;29.20;;;;;;;4.35;82.22;97186.70;1847830;77;21047;-81
2021/10/11 01:41:52;;;;;;;44.30;29.25;;;;;;;4.37;82.15;97181.43;1848403;77;21050;-82
2021/10/11 01:44:17;;;;;;;43.35;28.98;;;;;;;4.38;82.28;97181.77;1846202;77;21076;-81
2021/10/11 01:46:43;;;;;;;48.15;29.20;;;;;;;4.36;82.36;97179.80;1846187;77;21537;-81
2021/10/11 01:49:09;;;;;;;39.35;27.95;;;;;;;4.35;82.39;97172.55;1844227;77;20996;-81
2021/10/11 01:51:34;;;;;;;41.73;27.87;;;;;;;4.37;82.43;97168.56;1848198;76;21090;-81
2021/10/11 01:54:00;;;;;;;42.08;28.52;;;;;;;4.41;82.42;97163.54;1849504;77;21094;-81
2021/10/11 01:56:26;;;;;;;42.30;27.82;;;;;;;4.42;82.27;97160.02;1850032;76;21181;-81
2021/10/11 01:58:51;;;;;;;39.95;26.80;;;;;;;4.41;82.33;97157.92;1856000;76;21077;-81
2021/10/11 02:01:17;;;;;;;41.20;28.12;;;;;;;4.41;82.37;97152.78;1844585;77;21075;-82
2021/10/11 02:03:44;;;;;;;40.50;28.62;;;;;;;4.42;82.36;97156.98;1844479;77;21421;-81
2021/10/11 02:06:10;;;;;;;37.98;26.80;;;;;;;4.44;82.25;97154.28;1830237;77;21026;-81
2021/10/11 02:08:36;;;;;;;38.02;26.25;;;;;;;4.46;82.19;97155.78;1849857;76;21337;-81
2021/10/11 02:11:02;;;;;;;35.83;26.45;;;;;;;4.48;82.05;97152.61;1868711;75;21039;-81
2021/10/11 02:13:28;;;;;;;37.85;26.70;;;;;;;4.49;82.12;97149.09;1838420;77;21354;-82
2021/10/11 02:15:54;;;;;;;40.55;26.35;;;;;;;4.47;82.10;97143.26;1849395;77;21000;-81
2021/10/11 02:18:20;;;;;;;42.93;27.42;;;;;;;4.47;82.14;97141.16;1849509;77;21437;-81
2021/10/11 02:20:46;;;;;;;38.55;27.93;;;;;;;4.46;82.14;97144.20;1849550;76;21058;-81
2021/10/11 02:23:11;;;;;;;40.58;26.20;;;;;;;4.45;82.30;97139.18;1847956;76;21036;-81
2021/10/11 02:25:37;;;;;;;40.48;26.87;;;;;;;4.46;82.22;97137.77;1844748;77;21118;-81
2021/10/11 02:28:03;;;;;;;33.95;25.05;;;;;;;4.50;82.24;97130.61;1849365;77;21088;-81
2021/10/11 02:30:29;;;;;;;41.63;25.37;;;;;;;4.50;82.13;97128.84;1849665;77;21026;-82
2021/10/11 02:32:55;;;;;;;37.08;25.82;;;;;;;4.48;82.08;97125.59;1846182;76;21070;-81
2021/10/11 02:35:21;;;;;;;35.83;24.50;;;;;;;4.48;82.20;97131.20;1847344;77;21106;-82
2021/10/11 02:37:47;;;;;;;38.25;24.40;;;;;;;4.48;82.29;97133.78;1844739;77;21122;-81
2021/10/11 02:40:13;;;;;;;36.88;24.37;;;;;;;4.47;82.11;97129.58;1808080;78;21053;-82
2021/10/11 02:42:38;;;;;;;37.90;24.87;;;;;;;4.48;82.10;97134.59;1832659;76;21008;-81
2021/10/11 02:45:05;;;;;;;32.08;22.80;;;;;;;4.49;82.04;97129.79;1837559;75;21054;-81
2021/10/11 02:47:31;;;;;;;37.85;23.92;;;;;;;4.51;82.12;97127.09;1840255;78;21074;-81
2021/10/11 02:49:57;;;;;;;35.68;24.20;;;;;;;4.50;82.09;97120.31;1822383;78;21063;-81
2021/10/11 02:52:23;;;;;;;33.98;23.70;;;;;;;4.47;82.06;97118.00;1816259;76;21051;-82
2021/10/11 02:54:48;;;;;;;36.45;22.07;;;;;;;4.47;82.23;97122.67;1818245;76;21090;-81
2021/10/11 02:57:15;;;;;;;33.28;22.55;;;;;;;4.48;82.24;97117.05;1793263;77;21029;-81
2021/10/11 02:59:40;;;;;;;34.88;22.30;;;;;;;4.47;82.18;97112.37;1794681;76;21363;-82
2021/10/11 03:02:06;;;;;;;32.60;22.48;;;;;;;4.51;82.05;97115.51;1817475;75;21075;-81
2021/10/11 03:04:32;;;;;;;32.42;20.95;;;;;;;4.52;81.90;97111.99;1849557;77;21019;-82
2021/10/11 03:06:58;;;;;;;29.35;21.23;;;;;;;4.50;81.66;97111.30;1849970;77;21358;-81
2021/10/11 03:09:24;;;;;;;31.00;20.77;;;;;;;4.46;81.47;97116.37;1849699;77;21012;-83
2021/10/11 03:11:50;;;;;;;29.20;19.65;;;;;;;4.43;81.44;97115.34;1839338;77;21016;-81
2021/10/11 03:14:16;;;;;;;29.07;20.27;;;;;;;4.42;81.58;97117.09;1863893;75;21353;-81
2021/10/11 03:16:42;;;;;;;28.92;19.40;;;;;;;4.41;81.58;97117.22;1844163;77;21020;-81
2021/10/11 03:19:07;;;;;;;32.05;21.57;;;;;;;4.41;81.47;97118.03;1840873;77;21023;-82
2021/10/11 03:21:33;;;;;;;28.67;20.45;;;;;;;4.43;81.66;97119.20;1840689;77;21477;-81
2021/10/11 03:23:59;;;;;;;29.60;19.30;;;;;;;4.43;81.77;97116.16;1841412;77;21025;-81
2021/10/11 03:26:24;;;;;;;29.42;19.70;;;;;;;4.43;81.82;97116.16;1849773;76;21049;-81
2021/10/11 03:28:50;;;;;;;31.33;20.62;;;;;;;4.39;81.54;97110.07;1849906;76;21435;-82
2021/10/11 03:31:16;;;;;;;28.55;18.30;;;;;;;4.34;81.38;97110.92;1846454;76;21031;-81
2021/10/11 03:33:42;;;;;;;25.37;17.92;;;;;;;4.33;81.52;97119.59;1849879;77;21066;-81
2021/10/11 03:36:08;;;;;;;30.17;20.12;;;;;;;4.33;81.57;97120.41;1839572;77;20988;-79
2021/10/11 03:38:34;;;;;;;30.82;19.77;;;;;;;4.32;81.48;97116.67;1847327;77;21324;-79
2021/10/11 03:41:00;;;;;;;27.27;19.70;;;;;;;4.29;81.41;97116.92;1849757;77;21082;-79
2021/10/11 03:43:26;;;;;;;29.02;18.62;;;;;;;4.26;81.70;97112.03;1848763;77;21151;-79
2021/10/11 03:45:55;;;;;;;28.70;20.40;;;;;;;4.22;81.93;97112.26;1846394;77;21095;-78
2021/10/11 03:48:22;;;;;;;29.52;20.12;;;;;;;4.24;81.76;97114.73;1849624;77;21018;-79
2021/10/11 03:50:48;;;;;;;27.13;18.55;;;;;;;4.22;81.70;97111.44;1850025;77;21034;-79
2021/10/11 03:53:14;;;;;;;29.48;18.95;;;;;;;4.20;81.70;97110.76;1849661;77;21094;-79
2021/10/11 03:55:41;;;;;;;30.55;19.55;;;;;;;4.18;81.56;97104.45;1844861;77;21047;-79
2021/10/11 03:58:07;;;;;;;28.87;19.32;;;;;;;4.18;81.70;97102.35;1844499;77;21026;-79
2021/10/11 04:00:32;;;;;;;27.70;19.30;;;;;;;4.16;81.71;97096.52;1818982;79;21078;-79
2021/10/11 04:03:02;;;;;;;29.25;18.87;;;;;;;4.13;81.72;97092.45;1819013;79;21047;-79
2021/10/11 04:05:26;;;;;;;28.25;19.27;;;;;;;4.11;81.71;97096.09;1831321;77;21038;-81
2021/10/11 04:07:55;;;;;;;30.35;20.30;;;;;;;4.08;81.55;97095.87;1834834;76;21074;-81
2021/10/11 04:10:26;;;;;;;26.20;18.98;;;;;;;4.08;81.45;97093.30;1821398;77;21127;-81
2021/10/11 04:12:50;;;;;;;31.73;19.98;;;;;;;4.10;81.27;97091.41;1831914;76;21019;-80
2021/10/11 04:15:15;;;;;;;28.87;18.65;;;;;;;4.10;81.15;97086.27;1800119;78;21168;-81
2021/10/11 04:17:41;;;;;;;32.60;18.80;;;;;;;4.09;81.15;97092.35;1814701;78;21124;-81
2021/10/11 04:20:07;;;;;;;25.57;17.30;;;;;;;4.08;81.16;97090.72;1847208;77;21091;-81
2021/10/11 04:22:34;;;;;;;30.25;19.37;;;;;;;4.06;81.03;97093.86;1848695;77;21062;-81
2021/10/11 04:25:00;;;;;;;33.35;20.05;;;;;;;4.01;81.03;97092.14;1849974;77;21083;-82
2021/10/11 04:27:25;;;;;;;29.27;18.67;;;;;;;3.96;81.02;97091.70;1844368;76;21048;-81
2021/10/11 04:29:51;;;;;;;28.27;18.30;;;;;;;3.95;81.06;97086.69;1847830;76;21074;-81
2021/10/11 04:32:17;;;;;;;24.67;17.98;;;;;;;3.96;81.04;97087.84;1862937;75;21330;-81
2021/10/11 04:34:42;;;;;;;26.62;17.50;;;;;;;3.94;80.90;97088.91;1862726;75;21056;-81
2021/10/11 04:37:08;;;;;;;28.60;17.90;;;;;;;3.97;81.04;97088.19;1842110;77;21047;-81
2021/10/11 04:39:34;;;;;;;25.60;17.20;;;;;;;3.96;81.10;97091.70;1846490;77;21011;-81
2021/10/11 04:42:00;;;;;;;30.43;17.73;;;;;;;3.93;81.17;97078.28;1850077;77;20999;-81
2021/10/11 04:44:25;;;;;;;25.95;17.62;;;;;;;3.90;81.14;97084.47;1846654;77;21023;-81
2021/10/11 04:46:51;;;;;;;27.02;16.10;;;;;;;3.90;81.06;97081.89;1850030;77;21059;-81
2021/10/11 04:49:17;;;;;;;28.23;16.40;;;;;;;3.89;80.87;97075.13;1849933;77;20996;-81
2021/10/11 04:51:42;;;;;;;27.07;17.23;;;;;;;3.90;80.82;97076.31;1849920;77;21058;-81
2021/10/11 04:54:09;;;;;;;29.63;16.73;;;;;;;3.90;80.79;97079.32;1850192;77;21075;-81
2021/10/11 04:56:34;;;;;;;25.72;16.97;;;;;;;3.87;80.83;97077.81;1846879;77;21059;-81
2021/10/11 04:59:00;;;;;;;25.70;16.42;;;;;;;3.84;80.85;97078.54;1850081;77;21027;-81
2021/10/11 05:01:27;;;;;;;26.55;16.17;;;;;;;3.81;80.92;97078.32;1842925;77;21446;-81
2021/10/11 05:03:53;;;;;;;23.30;15.28;;;;;;;3.81;80.91;97081.36;1843821;77;21110;-80
2021/10/11 05:06:19;;;;;;;26.62;15.38;;;;;;;3.82;80.86;97082.99;1843946;77;21134;-81
2021/10/11 05:08:45;;;;;;;26.07;15.23;;;;;;;3.84;80.77;97083.21;1849449;77;22365;-81
2021/10/11 05:11:11;;;;;;;26.50;15.30;;;;;;;3.85;80.81;97082.73;1847646;77;21112;-81
2021/10/11 05:13:37;;;;;;;26.37;16.73;;;;;;;3.85;80.91;97080.98;1843032;77;21039;-81
2021/10/11 05:16:05;;;;;;;25.35;16.05;;;;;;;3.85;80.93;97080.17;1849839;77;21043;-81
2021/10/11 05:18:30;;;;;;;26.52;16.95;;;;;;;3.83;80.88;97075.63;1846610;77;21522;-80
2021/10/11 05:20:58;;;;;;;27.80;15.72;;;;;;;3.82;80.91;97083.80;1868753;75;21103;-81
2021/10/11 05:23:24;;;;;;;25.85;15.35;;;;;;;3.83;80.87;97082.05;1856902;75;21485;-81
2021/10/11 05:25:49;;;;;;;27.25;14.75;;;;;;;3.84;80.91;97078.07;1849790;77;21218;-81
2021/10/11 05:28:15;;;;;;;21.62;14.58;;;;;;;3.88;80.81;97079.91;1847479;77;21023;-80
2021/10/11 05:30:41;;;;;;;25.43;15.70;;;;;;;3.90;80.83;97081.45;1863298;75;21418;-80
2021/10/11 05:33:10;;;;;;;24.02;14.75;;;;;;;3.90;80.89;97068.59;1864366;75;21026;-81
2021/10/11 05:35:38;;;;;;;21.62;14.87;;;;;;;3.90;80.89;97071.17;1860894;75;21094;-81
2021/10/11 05:38:04;;;;;;;23.57;13.70;;;;;;;3.88;80.89;97073.48;1847278;77;21101;-80
2021/10/11 05:40:31;;;;;;;24.10;13.90;;;;;;;3.87;80.91;97073.14;1833621;76;21018;-80
2021/10/11 05:42:58;;;;;;;24.82;14.55;;;;;;;3.91;80.82;97071.98;1829768;78;21088;-81
2021/10/11 05:45:23;;;;;;;24.27;14.90;;;;;;;3.96;80.78;97074.17;1829588;78;21057;-81
2021/10/11 05:47:50;;;;;;;21.55;13.88;;;;;;;4.01;80.64;97073.33;1820881;77;21400;-80
2021/10/11 05:50:16;;;;;;;23.42;14.85;;;;;;;4.02;80.53;97076.24;1855907;76;21090;-81
2021/10/11 05:52:42;;;;;;;23.87;13.80;;;;;;;4.01;80.69;97067.71;1853349;76;21418;-80
2021/10/11 05:55:08;;;;;;;21.87;15.08;;;;;;;4.02;80.74;97071.91;1807208;77;21027;-81
2021/10/11 05:57:35;;;;;;;24.82;15.43;;;;;;;4.02;80.82;97070.62;1803060;78;21048;-82
2021/10/11 06:00:03;;;;;;;20.27;12.78;;;;;;;4.01;80.81;97066.42;1835100;75;21468;-82
2021/10/11 06:02:29;;;;;;;20.90;12.03;;;;;;;4.03;81.04;97067.11;1846682;77;21047;-81
2021/10/11 06:04:55;;;;;;;27.73;13.88;;;;;;;4.08;80.97;97065.48;1842597;77;21090;-81
2021/10/11 06:07:20;;;;;;;22.80;14.47;;;;;;;4.12;80.87;97066.38;1800333;77;21076;-81
2021/10/11 06:09:46;;;;;;;21.33;12.80;;;;;;;4.17;81.00;97071.14;1799748;79;21067;-81
2021/10/11 06:12:12;;;;;;;26.62;13.70;;;;;;;4.20;81.02;97076.03;1813579;76;20968;-81
2021/10/11 06:14:38;;;;;;;22.70;14.40;;;;;;;4.22;81.11;97080.58;1811313;75;21044;-80
2021/10/11 06:17:04;;;;;;;21.52;13.50;;;;;;;4.22;80.99;97078.82;1779823;79;20992;-81
2021/10/11 06:19:29;;;;;;;20.08;12.55;;;;;;;4.24;80.90;97083.05;1786529;79;21011;-80
2021/10/11 06:21:56;;;;;;;21.12;12.25;;;;;;;4.26;80.71;97086.31;1783786;79;21111;-81
2021/10/11 06:24:21;;;;;;;19.70;12.60;;;;;;;4.30;80.59;97081.25;1810261;78;21091;-81
2021/10/11 06:26:48;;;;;;;22.20;12.37;;;;;;;4.35;80.50;97086.83;1823474;77;21055;-81
2021/10/11 06:29:14;;;;;;;20.92;13.45;;;;;;;4.36;80.56;97082.84;1798300;78;21036;-81
2021/10/11 06:31:40;;;;;;;18.45;12.90;;;;;;;4.39;80.88;97086.91;1796177;78;21075;-81
2021/10/11 06:34:05;;;;;;;20.23;12.98;;;;;;;4.40;80.81;97086.00;1800448;79;21415;-81
2021/10/11 06:36:35;;;;;;;19.50;12.58;;;;;;;4.41;80.79;97078.62;1786581;78;20997;-81
2021/10/11 06:38:59;;;;;;;18.42;12.53;;;;;;;4.43;80.65;97079.31;1783778;78;21029;-81
2021/10/11 06:41:25;;;;;;;17.52;12.07;;;;;;;4.46;80.55;97079.05;1786720;79;21068;-81
2021/10/11 06:43:50;;;;;;;19.70;12.18;;;;;;;4.48;80.29;97078.45;1790061;78;21010;-81
2021/10/11 06:46:16;;;;;;;23.57;12.68;;;;;;;4.52;80.22;97075.96;1786936;79;21057;-80
2021/10/11 06:48:42;;;;;;;20.20;12.05;;;;;;;4.53;80.31;97073.73;1786509;79;21328;-81
2021/10/11 06:51:08;;;;;;;19.95;13.48;;;;;;;4.55;80.33;97074.41;1793110;78;21010;-81
2021/10/11 06:53:34;;;;;;;21.27;13.10;;;;;;;4.58;80.34;97075.95;1819236;78;21047;-81
2021/10/11 06:55:59;;;;;;;19.50;12.25;;;;;;;4.60;80.44;97074.05;1793897;78;21116;-81
2021/10/11 06:58:25;;;;;;;18.52;12.03;;;;;;;4.66;80.37;97070.95;1810094;78;21063;-81
2021/10/11 07:00:51;;;;;;;20.37;12.70;;;;;;;4.73;80.37;97069.05;1830937;76;21400;-80
2021/10/11 07:03:23;;;;;;;20.68;12.70;;;;;;;4.81;80.17;97066.63;1814873;77;21063;-81
2021/10/11 07:05:44;;;;;;;19.25;13.18;;;;;;;4.86;80.07;97064.95;1847879;75;21117;-81
2021/10/11 07:08:10;;;;;;;21.93;12.50;;;;;;;4.92;80.12;97064.92;1849099;77;21023;-81
2021/10/11 07:10:36;;;;;;;20.40;12.78;;;;;;;4.96;80.30;97055.51;1847635;76;21398;-81
2021/10/11 07:13:03;;;;;;;22.58;13.20;;;;;;;5.01;80.40;97054.63;1788659;78;21128;-81
2021/10/11 07:15:30;;;;;;;22.50;13.32;;;;;;;5.06;80.37;97058.13;1850132;77;21043;-81
2021/10/11 07:17:56;;;;;;;20.62;12.73;;;;;;;5.12;80.24;97058.88;1844116;77;21041;-81
2021/10/11 07:20:23;;;;;;;21.45;12.75;;;;;;;5.20;80.00;97064.17;1849635;76;21003;-81
2021/10/11 07:22:48;;;;;;;19.15;13.22;;;;;;;5.26;79.90;97064.95;1847315;77;21047;-81
2021/10/11 07:25:14;;;;;;;18.55;13.15;;;;;;;5.31;79.87;97062.80;1786418;78;21002;-81
2021/10/11 07:27:40;;;;;;;23.15;13.20;;;;;;;5.36;79.64;97065.78;1801334;77;21052;-81
2021/10/11 07:30:05;;;;;;;23.12;13.75;;;;;;;5.40;79.61;97059.44;1819232;77;21544;-81
2021/10/11 07:32:31;;;;;;;20.92;13.38;;;;;;;5.45;79.63;97054.34;1849186;77;21055;-81
2021/10/11 07:34:57;;;;;;;22.52;13.53;;;;;;;5.52;79.81;97055.43;1813931;77;20988;-81
2021/10/11 07:37:23;;;;;;;22.77;12.00;;;;;;;5.57;79.55;97057.97;1819698;79;21005;-81
2021/10/11 07:39:50;;;;;;;23.32;13.32;;;;;;;5.65;79.34;97063.25;1813255;79;21063;-81
2021/10/11 07:42:16;;;;;;;21.20;12.95;;;;;;;5.70;79.21;97062.40;1821764;79;21078;-80
2021/10/11 07:44:42;;;;;;;21.40;13.05;;;;;;;5.78;79.11;97058.31;1819355;78;21501;-81
2021/10/11 07:47:08;;;;;;;25.30;13.20;;;;;;;5.83;78.82;97057.42;1823650;78;21147;-81
2021/10/11 07:49:34;;;;;;;20.43;12.47;;;;;;;5.85;78.63;97056.34;1821841;79;21146;-81
2021/10/11 07:51:59;;;;;;;22.73;13.38;;;;;;;5.89;78.44;97051.74;1820820;78;21118;-81
2021/10/11 07:54:25;;;;;;;21.17;12.63;;;;;;;5.91;77.87;97052.45;1787442;79;21558;-81
2021/10/11 07:56:51;;;;;;;21.25;13.05;;;;;;;5.93;77.97;97052.65;1785302;78;21012;-81
2021/10/11 07:59:17;;;;;;;18.62;12.82;;;;;;;5.97;78.17;97046.73;1811887;78;21415;-81
2021/10/11 08:01:42;;;;;;;19.65;12.55;;;;;;;6.03;77.75;97047.50;1786799;79;21037;-81
2021/10/11 08:04:08;;;;;;;22.00;13.90;;;;;;;6.10;77.56;97043.87;1786931;79;21112;-81
2021/10/11 08:06:34;;;;;;;19.62;13.62;;;;;;;6.19;75.87;97034.85;1782776;78;21423;-81
2021/10/11 08:09:01;;;;;;;25.12;16.55;;;;;;;6.29;76.44;97034.81;1806608;78;21115;-81
2021/10/11 08:11:27;;;;;;;24.95;17.15;;;;;;;6.38;75.06;97037.05;1805984;77;22110;-81
2021/10/11 08:13:53;;;;;;;27.40;19.05;;;;;;;6.49;74.26;97035.10;1828430;77;21083;-81
2021/10/11 08:16:19;;;;;;;29.65;17.55;;;;;;;6.61;72.12;97041.73;1818940;78;21087;-81
2021/10/11 08:18:44;;;;;;;20.92;14.40;;;;;;;6.73;73.38;97041.56;1832732;77;21108;-81
2021/10/11 08:21:10;;;;;;;26.95;17.62;;;;;;;6.82;74.55;97039.41;1786713;79;20998;-81
2021/10/11 08:23:39;;;;;;;30.72;19.62;;;;;;;6.86;73.58;97045.46;1787080;79;21136;-81
2021/10/11 08:26:04;;;;;;;33.40;20.52;;;;;;;6.95;72.75;97037.80;1827663;77;21087;-81
2021/10/11 08:28:29;;;;;;;30.37;21.62;;;;;;;7.07;73.07;97045.23;1773879;77;21046;-81
2021/10/11 08:30:56;;;;;;;33.18;23.42;;;;;;;7.19;72.78;97046.67;1784477;79;21432;-81
2021/10/11 08:33:21;;;;;;;35.98;23.40;;;;;;;7.30;72.69;97046.12;1785980;79;21120;-81
2021/10/11 08:35:47;;;;;;;35.08;23.57;;;;;;;7.41;73.03;97048.51;1797692;78;21493;-81
2021/10/11 08:38:14;;;;;;;35.10;24.27;;;;;;;7.50;72.83;97048.94;1798653;78;21088;-81
2021/10/11 08:40:39;;;;;;;35.10;22.00;;;;;;;7.59;72.69;97048.53;1786999;79;21082;-81
2021/10/11 08:43:05;;;;;;;35.78;23.98;;;;;;;7.66;72.88;97041.83;1787511;79;21633;-81
2021/10/11 08:45:31;;;;;;;36.05;24.92;;;;;;;7.71;72.39;97041.70;1814073;78;21078;-81
2021/10/11 08:47:56;;;;;;;39.03;27.13;;;;;;;7.74;71.99;97041.89;1806061;77;21079;-81
2021/10/11 08:50:22;;;;;;;32.03;24.67;;;;;;;7.80;72.16;97043.39;1834357;78;21064;-81
2021/10/11 08:52:50;;;;;;;40.65;25.68;;;;;;;7.87;71.83;97039.75;1814676;77;21109;-81
2021/10/11 08:55:16;;;;;;;41.37;27.27;;;;;;;7.95;71.85;97037.70;1819644;77;21047;-81
2021/10/11 08:57:41;;;;;;;26.82;19.30;;;;;;;8.06;71.92;97036.18;1795048;77;21096;-82
2021/10/11 09:00:12;;;;;;;28.83;20.85;;;;;;;8.18;73.02;97034.98;1828436;77;21635;-81
2021/10/11 09:02:55;;;;;;;33.73;22.55;;;;;;;8.27;70.27;97028.89;1838003;76;21027;-82
2021/10/11 09:08:04;;;;;;;37.78;26.60;;;;;;;8.53;69.93;97021.17;1829185;76;21092;-81
2021/10/11 09:10:31;;;;;;;39.85;26.77;;;;;;;8.65;69.62;97019.13;1844535;75;21031;-81
2021/10/11 09:12:57;;;;;;;32.55;24.02;;;;;;;8.80;69.83;97012.90;1849077;76;21031;-81
2021/10/11 09:15:26;;;;;;;34.73;24.90;;;;;;;8.95;69.82;97013.94;1807859;78;21418;-81
2021/10/11 09:17:54;;;;;;;32.30;23.35;;;;;;;9.10;69.11;97016.23;1813533;78;20984;-83
2021/10/11 09:20:24;;;;;;;36.60;24.95;;;;;;;9.24;69.17;97013.05;1830433;77;21395;-81
2021/10/11 09:22:53;;;;;;;29.95;20.15;;;;;;;9.39;68.65;97013.73;1847729;77;21051;-81
2021/10/11 09:25:20;;;;;;;29.65;20.77;;;;;;;9.52;66.83;97014.91;1849049;77;21458;-82
2021/10/11 09:27:52;;;;;;;30.08;21.93;;;;;;;9.61;66.46;97008.77;1848513;77;21344;-81
2021/10/11 09:30:26;;;;;;;31.45;23.50;;;;;;;9.67;66.76;97004.72;1818093;78;21045;-81
2021/10/11 09:33:10;;;;;;;31.50;20.60;;;;;;;9.66;64.94;97007.47;1806950;78;21056;-82
2021/10/11 09:35:36;;;;;;;27.27;19.17;;;;;;;9.61;63.83;97006.17;1812666;77;21060;-82
2021/10/11 09:38:03;;;;;;;37.35;21.80;;;;;;;9.62;65.39;97014.77;1804388;77;21421;-81
2021/10/11 09:43:12;;;;;;;28.52;15.48;;;;;;;9.65;63.50;97011.04;1824973;77;21017;-82
2021/10/11 09:45:38;;;;;;;24.25;17.12;;;;;;;9.67;64.17;97014.28;1841001;75;21194;-82
2021/10/11 09:48:06;;;;;;;29.27;18.15;;;;;;;9.71;64.27;97019.47;1822825;77;21170;-82
2021/10/11 09:50:32;;;;;;;23.25;16.55;;;;;;;9.74;63.51;97014.77;1821919;78;21170;-82
2021/10/11 09:52:57;;;;;;;24.67;16.85;;;;;;;9.81;64.25;97014.95;1820210;77;21114;-82
2021/10/11 09:55:23;;;;;;;28.65;16.60;;;;;;;9.86;64.73;97016.08;1821266;77;21117;-82
2021/10/11 09:57:49;;;;;;;22.37;15.03;;;;;;;9.90;62.78;97011.37;1818975;75;20991;-82
2021/10/11 10:00:15;;;;;;;24.63;16.23;;;;;;;9.93;63.64;97005.87;1826644;76;21047;-82
2021/10/11 10:05:22;;;;;;;26.73;17.17;;;;;;;10.02;63.65;97006.19;1845743;75;21011;-82
2021/10/11 10:07:50;;;;;;;26.05;16.32;;;;;;;10.10;63.07;97001.00;1817067;78;21423;-82
2021/10/11 10:10:19;;;;;;;25.82;17.42;;;;;;;10.15;61.73;97000.02;1842775;78;21474;-82
2021/10/11 10:15:10;;;;;;;56.65;34.15;;;;;;;10.32;63.03;96986.55;1849467;77;21394;-82
2021/10/11 10:17:36;;;;;;;32.55;20.62;;;;;;;10.44;62.76;96981.83;1849112;77;21433;-82
2021/10/11 10:20:10;;;;;;;31.62;21.75;;;;;;;10.55;63.05;96980.16;1848860;77;22036;-82
2021/10/11 10:22:42;;;;;;;35.75;21.30;;;;;;;10.71;61.07;96975.40;1846367;77;21016;-82
2021/10/11 10:25:10;;;;;;;27.67;18.15;;;;;;;10.77;60.70;96970.36;1847214;76;21035;-82
2021/10/11 10:27:40;;;;;;;28.20;17.67;;;;;;;10.81;60.56;96970.34;1848023;77;21390;-82
2021/10/11 10:30:24;;;;;;;28.15;17.82;;;;;;;10.89;60.52;96958.27;1846051;77;21059;-83
2021/10/11 10:35:18;;;;;;;28.52;18.15;;;;;;;11.05;60.46;96962.91;1808495;77;21049;-83
2021/10/11 10:37:43;;;;;;;34.23;20.90;;;;;;;11.11;59.86;96952.33;1819309;77;21096;-83
2021/10/11 10:40:12;;;;;;;27.13;17.45;;;;;;;11.18;60.43;96949.84;1816932;78;21379;-83
2021/10/11 10:42:37;;;;;;;22.48;15.98;;;;;;;11.22;59.45;96949.31;1815512;78;21002;-83
2021/10/11 10:45:16;;;;;;;26.48;17.80;;;;;;;11.28;60.57;96943.94;1801938;77;21332;-82
2021/10/11 10:47:43;;;;;;;29.63;18.60;;;;;;;11.26;61.03;96940.21;1804799;77;21122;-82
2021/10/11 10:50:13;;;;;;;29.48;18.57;;;;;;;11.19;59.75;96939.27;1794921;78;21029;-82
2021/10/11 10:52:39;;;;;;;30.70;20.08;;;;;;;11.12;60.03;96932.65;1816217;77;21011;-83
2021/10/11 10:55:05;;;;;;;25.37;16.90;;;;;;;11.05;58.87;96929.09;1828512;75;21393;-82
2021/10/11 10:57:32;;;;;;;26.30;18.23;;;;;;;11.02;58.80;96931.23;1839923;78;21043;-82
2021/10/11 11:02:24;;;;;;;23.07;16.62;;;;;;;10.93;58.51;96924.47;1845527;76;21146;-82
2021/10/11 11:07:38;;;;;;;28.32;17.50;;;;;;;11.00;58.96;96925.40;1836030;76;21078;-82
2021/10/11 11:10:11;;;;;;;27.98;18.80;;;;;;;11.04;58.76;96918.87;1844729;77;21095;-83
2021/10/11 11:12:37;;;;;;;23.95;17.65;;;;;;;11.08;57.67;96915.77;1835952;78;21080;-83
2021/10/11 11:15:06;;;;;;;29.65;19.30;;;;;;;11.14;58.17;96912.97;1838397;77;21047;-83
2021/10/11 11:17:34;;;;;;;28.00;19.75;;;;;;;11.21;58.05;96912.58;1847309;76;21090;-82
2021/10/11 11:22:31;;;;;;;26.95;18.05;;;;;;;11.28;57.84;96903.12;1849709;76;21015;-83
2021/10/11 11:25:01;;;;;;;25.88;16.57;;;;;;;11.33;57.96;96907.31;1849591;76;21114;-82
2021/10/11 11:27:29;;;;;;;27.07;18.15;;;;;;;11.41;56.60;96909.87;1834997;76;22597;-83
2021/10/11 11:29:59;;;;;;;26.10;18.67;;;;;;;11.41;57.64;96912.96;1842010;77;21107;-83
2021/10/11 11:32:25;;;;;;;24.67;16.85;;;;;;;11.45;56.94;96909.02;1846022;77;21583;-83
2021/10/11 11:34:51;;;;;;;25.32;17.42;;;;;;;11.49;56.04;96907.69;1848997;77;21126;-83
2021/10/11 11:37:17;;;;;;;21.80;16.23;;;;;;;11.55;56.82;96903.56;1843864;77;21110;-83
2021/10/11 11:39:43;;;;;;;26.68;17.55;;;;;;;11.60;56.23;96898.17;1849639;77;21027;-83
2021/10/11 11:42:08;;;;;;;28.47;17.98;;;;;;;11.61;55.66;96897.19;1849377;77;21095;-83
2021/10/11 11:44:34;;;;;;;23.35;15.10;;;;;;;11.60;55.45;96898.66;1847814;77;21083;-83
2021/10/11 11:47:06;;;;;;;19.82;13.98;;;;;;;11.60;54.76;96893.45;1847393;77;21114;-83